sensor_id;sensor_type;location;lat;lon;timestamp;pressure;altitude;pressure_sealevel;temperature;humidity
54876;BME280;40764;48.472;8.166;2022-08-19T00:04:45;97857.19;;;17.87;100.00
54876;BME280;40764;48.472;8.166;2022-08-19T00:10:48;97850.97;;;17.90;100.00
54876;BME280;40764;48.472;8.166;2022-08-19T00:16:48;97855.91;;;17.97;100.00
54876;BME280;40764;48.472;8.166;2022-08-19T00:22:49;97858.81;;;17.88;100.00
54876;BME280;40764;48.472;8.166;2022-08-19T00:28:49;97858.22;;;17.94;100.00
54876;BME280;40764;48.472;8.166;2022-08-19T00:34:51;97850.38;;;17.97;100.00
54876;BME280;40764;48.472;8.166;2022-08-19T00:40:53;97840.72;;;17.90;100.00
54876;BME280;40764;48.472;8.166;2022-08-19T00:46:56;97847.66;;;17.84;100.00
54876;BME280;40764;48.472;8.166;2022-08-19T00:52:57;97859.50;;;17.85;100.00
54876;BME280;40764;48.472;8.166;2022-08-19T00:58:58;97850.97;;;17.90;100.00
54876;BME280;40764;48.472;8.166;2022-08-19T01:05:02;97838.88;;;17.94;100.00
54876;BME280;40764;48.472;8.166;2022-08-19T01:11:03;97830.81;;;17.89;100.00
54876;BME280;40764;48.472;8.166;2022-08-19T01:17:04;97832.69;;;17.85;100.00
54876;BME280;40764;48.472;8.166;2022-08-19T01:23:05;97828.28;;;17.97;100.00
54876;BME280;40764;48.472;8.166;2022-08-19T01:29:06;97833.56;;;17.89;100.00
54876;BME280;40764;48.472;8.166;2022-08-19T01:35:08;97835.09;;;17.87;100.00
54876;BME280;40764;48.472;8.166;2022-08-19T01:41:11;97838.06;;;17.94;100.00
54876;BME280;40764;48.472;8.166;2022-08-19T01:47:11;97832.41;;;17.90;100.00
54876;BME280;40764;48.472;8.166;2022-08-19T01:53:12;97819.75;;;17.89;100.00
54876;BME280;40764;48.472;8.166;2022-08-19T01:59:16;97813.72;;;18.00;100.00
54876;BME280;40764;48.472;8.166;2022-08-19T02:05:17;97814.44;;;17.97;100.00
54876;BME280;40764;48.472;8.166;2022-08-19T02:11:24;97808.06;;;17.80;100.00
54876;BME280;40764;48.472;8.166;2022-08-19T02:17:28;97814.56;;;17.88;100.00
54876;BME280;40764;48.472;8.166;2022-08-19T02:23:29;97825.41;;;17.93;100.00
54876;BME280;40764;48.472;8.166;2022-08-19T02:29:29;97821.34;;;17.90;100.00
54876;BME280;40764;48.472;8.166;2022-08-19T02:35:30;97827.16;;;17.85;100.00
54876;BME280;40764;48.472;8.166;2022-08-19T02:41:32;97823.56;;;17.85;100.00
54876;BME280;40764;48.472;8.166;2022-08-19T02:47:33;97817.69;;;17.86;100.00
54876;BME280;40764;48.472;8.166;2022-08-19T02:53:34;97812.63;;;17.88;100.00
54876;BME280;40764;48.472;8.166;2022-08-19T02:59:34;97816.41;;;17.96;100.00
54876;BME280;40764;48.472;8.166;2022-08-19T03:05:35;97811.41;;;18.02;100.00
54876;BME280;40764;48.472;8.166;2022-08-19T03:11:36;97808.91;;;17.97;100.00
54876;BME280;40764;48.472;8.166;2022-08-19T03:17:36;97816.25;;;18.05;100.00
54876;BME280;40764;48.472;8.166;2022-08-19T03:23:37;97820.25;;;18.07;100.00
54876;BME280;40764;48.472;8.166;2022-08-19T03:29:37;97839.22;;;17.93;100.00
54876;BME280;40764;48.472;8.166;2022-08-19T03:35:39;97838.31;;;17.89;100.00
54876;BME280;40764;48.472;8.166;2022-08-19T03:41:42;97847.28;;;17.98;100.00
54876;BME280;40764;48.472;8.166;2022-08-19T03:47:43;97840.13;;;17.97;100.00
54876;BME280;40764;48.472;8.166;2022-08-19T03:53:43;97831.56;;;18.02;100.00
54876;BME280;40764;48.472;8.166;2022-08-19T03:59:44;97842.03;;;18.09;100.00
54876;BME280;40764;48.472;8.166;2022-08-19T04:05:45;97845.41;;;18.02;100.00
54876;BME280;40764;48.472;8.166;2022-08-19T04:11:49;97846.31;;;18.06;100.00
54876;BME280;40764;48.472;8.166;2022-08-19T04:17:53;97844.59;;;18.02;100.00
54876;BME280;40764;48.472;8.166;2022-08-19T04:23:55;97856.81;;;18.01;100.00
54876;BME280;40764;48.472;8.166;2022-08-19T04:29:56;97857.47;;;18.10;100.00
54876;BME280;40764;48.472;8.166;2022-08-19T04:35:57;97859.97;;;18.15;100.00
54876;BME280;40764;48.472;8.166;2022-08-19T04:41:58;97853.38;;;18.19;100.00
54876;BME280;40764;48.472;8.166;2022-08-19T04:48:17;97851.75;;;18.18;100.00
54876;BME280;40764;48.472;8.166;2022-08-19T04:54:24;97866.81;;;18.05;100.00
54876;BME280;40764;48.472;8.166;2022-08-19T05:00:25;97865.66;;;18.06;100.00
54876;BME280;40764;48.472;8.166;2022-08-19T05:06:26;97862.84;;;18.18;100.00
54876;BME280;40764;48.472;8.166;2022-08-19T05:12:26;97876.22;;;18.16;100.00
54876;BME280;40764;48.472;8.166;2022-08-19T05:18:28;97886.38;;;18.12;100.00
54876;BME280;40764;48.472;8.166;2022-08-19T05:24:47;97887.97;;;18.13;100.00
54876;BME280;40764;48.472;8.166;2022-08-19T05:30:48;97888.84;;;18.02;100.00
54876;BME280;40764;48.472;8.166;2022-08-19T05:36:52;97898.78;;;18.18;100.00
54876;BME280;40764;48.472;8.166;2022-08-19T05:42:57;97908.91;;;18.26;100.00
54876;BME280;40764;48.472;8.166;2022-08-19T05:48:57;97909.09;;;18.34;100.00
54876;BME280;40764;48.472;8.166;2022-08-19T05:54:58;97922.06;;;18.45;100.00
54876;BME280;40764;48.472;8.166;2022-08-19T06:00:59;97912.88;;;18.41;100.00
54876;BME280;40764;48.472;8.166;2022-08-19T06:07:04;97921.06;;;18.38;100.00
54876;BME280;40764;48.472;8.166;2022-08-19T06:13:04;97922.16;;;18.49;100.00
54876;BME280;40764;48.472;8.166;2022-08-19T06:19:09;97936.25;;;18.44;100.00
54876;BME280;40764;48.472;8.166;2022-08-19T06:25:11;97941.53;;;18.49;100.00
54876;BME280;40764;48.472;8.166;2022-08-19T06:31:14;97953.09;;;18.51;100.00
54876;BME280;40764;48.472;8.166;2022-08-19T06:37:16;97956.41;;;18.56;100.00
54876;BME280;40764;48.472;8.166;2022-08-19T06:43:16;97960.72;;;18.70;100.00
54876;BME280;40764;48.472;8.166;2022-08-19T06:49:17;97969.34;;;18.80;100.00
54876;BME280;40764;48.472;8.166;2022-08-19T06:55:18;97968.97;;;18.82;100.00
54876;BME280;40764;48.472;8.166;2022-08-19T07:01:19;97973.59;;;18.78;100.00
54876;BME280;40764;48.472;8.166;2022-08-19T07:07:20;97956.94;;;18.90;100.00
54876;BME280;40764;48.472;8.166;2022-08-19T07:20:10;97960.22;;;18.96;100.00
54876;BME280;40764;48.472;8.166;2022-08-19T07:26:15;97962.22;;;19.11;100.00
54876;BME280;40764;48.472;8.166;2022-08-19T07:32:22;97953.97;;;19.30;100.00
54876;BME280;40764;48.472;8.166;2022-08-19T07:38:23;97956.75;;;19.30;100.00
54876;BME280;40764;48.472;8.166;2022-08-19T07:44:24;97965.78;;;19.43;100.00
54876;BME280;40764;48.472;8.166;2022-08-19T07:50:34;97956.75;;;19.30;100.00
54876;BME280;40764;48.472;8.166;2022-08-19T07:56:35;97956.66;;;19.27;100.00
54876;BME280;40764;48.472;8.166;2022-08-19T08:02:36;97957.09;;;19.29;100.00
54876;BME280;40764;48.472;8.166;2022-08-19T08:08:42;97954.34;;;19.44;98.84
54876;BME280;40764;48.472;8.166;2022-08-19T08:15:05;97959.81;;;19.57;98.67
54876;BME280;40764;48.472;8.166;2022-08-19T08:21:09;97969.72;;;19.73;97.97
54876;BME280;40764;48.472;8.166;2022-08-19T08:27:10;97982.13;;;19.79;97.19
54876;BME280;40764;48.472;8.166;2022-08-19T08:33:14;97981.47;;;19.86;95.93
54876;BME280;40764;48.472;8.166;2022-08-19T08:39:19;97991.31;;;19.99;94.87
54876;BME280;40764;48.472;8.166;2022-08-19T08:45:24;97990.78;;;20.13;94.25
54876;BME280;40764;48.472;8.166;2022-08-19T08:51:49;98003.41;;;20.26;90.80
54876;BME280;40764;48.472;8.166;2022-08-19T08:58:13;98004.59;;;20.45;89.56
54876;BME280;40764;48.472;8.166;2022-08-19T09:04:16;98002.75;;;20.71;88.14
54876;BME280;40764;48.472;8.166;2022-08-19T09:10:37;98019.78;;;20.89;86.64
54876;BME280;40764;48.472;8.166;2022-08-19T09:16:38;98020.25;;;21.14;85.18
54876;BME280;40764;48.472;8.166;2022-08-19T09:22:41;98019.47;;;21.59;82.35
54876;BME280;40764;48.472;8.166;2022-08-19T09:28:47;98020.09;;;21.99;80.13
54876;BME280;40764;48.472;8.166;2022-08-19T09:34:51;98028.00;;;21.96;80.23
54876;BME280;40764;48.472;8.166;2022-08-19T09:40:54;98017.34;;;21.76;79.62
54876;BME280;40764;48.472;8.166;2022-08-19T09:46:54;98025.38;;;21.81;79.06
54876;BME280;40764;48.472;8.166;2022-08-19T09:52:56;98026.75;;;21.94;77.77
54876;BME280;40764;48.472;8.166;2022-08-19T09:59:01;98025.66;;;21.99;77.09
54876;BME280;40764;48.472;8.166;2022-08-19T10:05:04;98033.03;;;21.87;77.97
54876;BME280;40764;48.472;8.166;2022-08-19T10:11:23;98057.63;;;21.85;77.07
54876;BME280;40764;48.472;8.166;2022-08-19T10:17:23;98047.69;;;21.84;76.87
54876;BME280;40764;48.472;8.166;2022-08-19T10:23:25;98049.72;;;21.87;76.46
54876;BME280;40764;48.472;8.166;2022-08-19T10:29:29;98047.00;;;21.91;76.11
54876;BME280;40764;48.472;8.166;2022-08-19T10:35:30;98030.88;;;22.27;75.71
54876;BME280;40764;48.472;8.166;2022-08-19T10:41:33;98032.84;;;22.56;74.82
54876;BME280;40764;48.472;8.166;2022-08-19T10:47:34;98029.78;;;22.65;73.83
54876;BME280;40764;48.472;8.166;2022-08-19T10:53:34;98042.94;;;22.68;73.33
54876;BME280;40764;48.472;8.166;2022-08-19T10:59:35;98025.19;;;22.49;74.76
54876;BME280;40764;48.472;8.166;2022-08-19T11:05:36;98025.34;;;22.30;75.56
54876;BME280;40764;48.472;8.166;2022-08-19T11:11:38;98025.34;;;22.60;74.38
54876;BME280;40764;48.472;8.166;2022-08-19T11:17:42;98012.56;;;23.26;71.45
54876;BME280;40764;48.472;8.166;2022-08-19T11:23:43;98011.25;;;24.01;70.44
54876;BME280;40764;48.472;8.166;2022-08-19T11:29:44;98007.81;;;23.71;67.48
54876;BME280;40764;48.472;8.166;2022-08-19T11:35:45;98014.41;;;23.52;67.22
54876;BME280;40764;48.472;8.166;2022-08-19T11:41:45;97998.53;;;23.56;65.04
54876;BME280;40764;48.472;8.166;2022-08-19T11:47:46;97999.69;;;23.55;65.52
54876;BME280;40764;48.472;8.166;2022-08-19T11:53:48;97998.06;;;23.10;69.61
54876;BME280;40764;48.472;8.166;2022-08-19T11:59:51;97998.16;;;23.17;71.23
54876;BME280;40764;48.472;8.166;2022-08-19T12:05:52;97999.09;;;23.35;67.73
54876;BME280;40764;48.472;8.166;2022-08-19T12:11:53;98014.03;;;24.01;63.07
54876;BME280;40764;48.472;8.166;2022-08-19T12:17:53;98004.75;;;23.90;64.21
54876;BME280;40764;48.472;8.166;2022-08-19T12:23:57;97997.19;;;23.91;63.88
54876;BME280;40764;48.472;8.166;2022-08-19T12:29:58;98002.91;;;24.12;62.63
54876;BME280;40764;48.472;8.166;2022-08-19T12:36:03;97999.56;;;23.89;61.64
54876;BME280;40764;48.472;8.166;2022-08-19T12:42:04;98005.97;;;23.93;60.73
54876;BME280;40764;48.472;8.166;2022-08-19T12:48:05;98006.66;;;23.75;60.63
54876;BME280;40764;48.472;8.166;2022-08-19T12:54:06;98003.84;;;23.72;60.18
54876;BME280;40764;48.472;8.166;2022-08-19T13:00:09;98009.97;;;23.92;59.05
54876;BME280;40764;48.472;8.166;2022-08-19T13:06:11;98002.09;;;24.04;59.14
54876;BME280;40764;48.472;8.166;2022-08-19T13:12:11;98000.94;;;24.13;59.11
54876;BME280;40764;48.472;8.166;2022-08-19T13:18:13;97987.19;;;24.52;57.82
54876;BME280;40764;48.472;8.166;2022-08-19T13:24:14;97986.19;;;25.06;57.67
54876;BME280;40764;48.472;8.166;2022-08-19T13:30:15;97975.44;;;25.22;55.87
54876;BME280;40764;48.472;8.166;2022-08-19T13:36:35;97969.47;;;25.24;57.90
54876;BME280;40764;48.472;8.166;2022-08-19T13:42:36;97966.69;;;25.52;55.89
54876;BME280;40764;48.472;8.166;2022-08-19T13:48:36;97959.84;;;25.14;55.95
54876;BME280;40764;48.472;8.166;2022-08-19T13:54:37;97969.84;;;25.37;55.21
54876;BME280;40764;48.472;8.166;2022-08-19T14:00:40;97970.97;;;24.89;56.56
54876;BME280;40764;48.472;8.166;2022-08-19T14:06:41;97981.59;;;24.52;58.92
54876;BME280;40764;48.472;8.166;2022-08-19T14:12:42;97981.41;;;24.16;59.62
54876;BME280;40764;48.472;8.166;2022-08-19T14:18:42;97992.09;;;24.03;60.03
54876;BME280;40764;48.472;8.166;2022-08-19T14:24:43;97992.25;;;23.70;59.94
54876;BME280;40764;48.472;8.166;2022-08-19T14:30:43;98000.19;;;23.64;60.90
54876;BME280;40764;48.472;8.166;2022-08-19T14:36:44;97989.03;;;23.68;61.13
54876;BME280;40764;48.472;8.166;2022-08-19T14:42:45;97971.72;;;23.99;61.61
54876;BME280;40764;48.472;8.166;2022-08-19T14:48:46;97976.25;;;24.25;60.68
54876;BME280;40764;48.472;8.166;2022-08-19T14:54:46;97969.59;;;24.37;60.28
54876;BME280;40764;48.472;8.166;2022-08-19T15:00:46;97971.69;;;24.68;59.57
54876;BME280;40764;48.472;8.166;2022-08-19T15:06:47;97969.47;;;25.20;59.14
54876;BME280;40764;48.472;8.166;2022-08-19T15:12:47;97965.44;;;25.14;59.25
54876;BME280;40764;48.472;8.166;2022-08-19T15:18:54;97968.66;;;25.41;56.67
54876;BME280;40764;48.472;8.166;2022-08-19T15:24:55;97978.66;;;25.46;57.21
54876;BME280;40764;48.472;8.166;2022-08-19T15:30:56;97971.06;;;25.60;56.74
54876;BME280;40764;48.472;8.166;2022-08-19T15:36:56;97968.66;;;25.30;56.50
54876;BME280;40764;48.472;8.166;2022-08-19T15:42:58;97972.63;;;25.08;57.52
54876;BME280;40764;48.472;8.166;2022-08-19T15:48:59;97973.22;;;24.48;59.76
54876;BME280;40764;48.472;8.166;2022-08-19T15:54:59;97976.97;;;24.08;60.97
54876;BME280;40764;48.472;8.166;2022-08-19T16:01:01;97985.81;;;23.62;61.64
54876;BME280;40764;48.472;8.166;2022-08-19T16:07:21;97981.66;;;23.42;63.38
54876;BME280;40764;48.472;8.166;2022-08-19T16:13:21;97987.38;;;23.15;65.09
54876;BME280;40764;48.472;8.166;2022-08-19T16:19:23;97983.00;;;23.14;65.09
54876;BME280;40764;48.472;8.166;2022-08-19T16:25:23;97985.66;;;23.04;67.88
54876;BME280;40764;48.472;8.166;2022-08-19T16:31:27;97980.75;;;22.90;70.10
54876;BME280;40764;48.472;8.166;2022-08-19T16:37:27;97993.94;;;22.63;72.79
54876;BME280;40764;48.472;8.166;2022-08-19T16:43:29;98000.44;;;22.74;73.66
54876;BME280;40764;48.472;8.166;2022-08-19T16:49:32;97993.72;;;22.79;76.94
54876;BME280;40764;48.472;8.166;2022-08-19T16:55:33;97999.19;;;22.68;76.50
54876;BME280;40764;48.472;8.166;2022-08-19T17:01:33;98012.78;;;22.43;78.51
54876;BME280;40764;48.472;8.166;2022-08-19T17:07:33;98021.59;;;22.49;78.55
54876;BME280;40764;48.472;8.166;2022-08-19T17:13:34;98022.75;;;22.44;79.18
54876;BME280;40764;48.472;8.166;2022-08-19T17:19:35;98023.75;;;22.29;79.46
54876;BME280;40764;48.472;8.166;2022-08-19T17:25:35;98022.69;;;22.71;76.98
54876;BME280;40764;48.472;8.166;2022-08-19T17:31:37;98033.97;;;22.81;71.06
54876;BME280;40764;48.472;8.166;2022-08-19T17:37:37;98028.81;;;22.83;69.73
54876;BME280;40764;48.472;8.166;2022-08-19T17:43:38;98039.47;;;22.78;68.16
54876;BME280;40764;48.472;8.166;2022-08-19T17:49:38;98040.97;;;22.68;67.64
54876;BME280;40764;48.472;8.166;2022-08-19T17:55:38;98052.28;;;22.52;68.14
54876;BME280;40764;48.472;8.166;2022-08-19T18:01:40;98046.16;;;22.40;68.83
54876;BME280;40764;48.472;8.166;2022-08-19T18:07:40;98063.03;;;22.24;69.29
54876;BME280;40764;48.472;8.166;2022-08-19T18:13:41;98073.91;;;22.06;69.68
54876;BME280;40764;48.472;8.166;2022-08-19T18:19:43;98066.00;;;21.85;70.84
54876;BME280;40764;48.472;8.166;2022-08-19T18:25:44;98069.31;;;21.26;76.37
54876;BME280;40764;48.472;8.166;2022-08-19T18:31:44;98069.47;;;20.75;79.27
54876;BME280;40764;48.472;8.166;2022-08-19T18:37:45;98078.13;;;20.35;81.38
54876;BME280;40764;48.472;8.166;2022-08-19T18:43:46;98086.03;;;20.17;83.34
54876;BME280;40764;48.472;8.166;2022-08-19T18:50:05;98103.16;;;19.88;84.53
54876;BME280;40764;48.472;8.166;2022-08-19T18:56:10;98104.63;;;19.38;88.03
54876;BME280;40764;48.472;8.166;2022-08-19T19:02:12;98116.84;;;19.21;89.75
54876;BME280;40764;48.472;8.166;2022-08-19T19:08:17;98128.28;;;19.19;91.10
54876;BME280;40764;48.472;8.166;2022-08-19T19:14:21;98123.00;;;18.86;92.53
54876;BME280;40764;48.472;8.166;2022-08-19T19:20:23;98143.09;;;18.71;93.36
54876;BME280;40764;48.472;8.166;2022-08-19T19:26:27;98151.66;;;18.54;94.18
54876;BME280;40764;48.472;8.166;2022-08-19T19:32:28;98169.88;;;18.55;94.12
54876;BME280;40764;48.472;8.166;2022-08-19T19:38:32;98169.88;;;18.43;94.74
54876;BME280;40764;48.472;8.166;2022-08-19T19:44:39;98171.94;;;18.46;94.99
54876;BME280;40764;48.472;8.166;2022-08-19T19:50:42;98185.56;;;18.63;94.43
54876;BME280;40764;48.472;8.166;2022-08-19T19:56:42;98190.41;;;18.54;95.16
54876;BME280;40764;48.472;8.166;2022-08-19T20:02:44;98200.06;;;18.60;94.38
54876;BME280;40764;48.472;8.166;2022-08-19T20:08:45;98211.41;;;18.67;94.43
54876;BME280;40764;48.472;8.166;2022-08-19T20:15:05;98232.03;;;18.70;94.36
54876;BME280;40764;48.472;8.166;2022-08-19T20:21:06;98226.41;;;18.66;94.37
54876;BME280;40764;48.472;8.166;2022-08-19T20:27:06;98237.69;;;18.61;94.50
54876;BME280;40764;48.472;8.166;2022-08-19T20:33:07;98236.31;;;18.55;95.33
54876;BME280;40764;48.472;8.166;2022-08-19T20:39:08;98248.88;;;18.52;96.20
54876;BME280;40764;48.472;8.166;2022-08-19T20:45:16;98250.00;;;18.39;96.76
54876;BME280;40764;48.472;8.166;2022-08-19T20:51:17;98248.63;;;18.33;97.00
54876;BME280;40764;48.472;8.166;2022-08-19T20:57:17;98253.13;;;18.25;97.53
54876;BME280;40764;48.472;8.166;2022-08-19T21:03:20;98244.34;;;18.11;98.41
54876;BME280;40764;48.472;8.166;2022-08-19T21:09:21;98261.59;;;17.96;98.56
54876;BME280;40764;48.472;8.166;2022-08-19T21:15:21;98250.63;;;17.87;98.93
54876;BME280;40764;48.472;8.166;2022-08-19T21:21:23;98255.22;;;17.62;100.00
54876;BME280;40764;48.472;8.166;2022-08-19T21:27:24;98253.31;;;17.42;100.00
54876;BME280;40764;48.472;8.166;2022-08-19T21:33:26;98255.16;;;17.17;100.00
54876;BME280;40764;48.472;8.166;2022-08-19T21:39:28;98250.09;;;17.19;100.00
54876;BME280;40764;48.472;8.166;2022-08-19T21:45:28;98263.22;;;17.01;100.00
54876;BME280;40764;48.472;8.166;2022-08-19T21:51:29;98254.25;;;17.04;100.00
54876;BME280;40764;48.472;8.166;2022-08-19T21:57:30;98268.22;;;17.08;100.00
54876;BME280;40764;48.472;8.166;2022-08-19T22:03:31;98267.56;;;17.11;100.00
54876;BME280;40764;48.472;8.166;2022-08-19T22:09:32;98261.94;;;16.99;100.00
54876;BME280;40764;48.472;8.166;2022-08-19T22:15:32;98257.09;;;16.96;100.00
54876;BME280;40764;48.472;8.166;2022-08-19T22:21:33;98255.16;;;16.96;100.00
54876;BME280;40764;48.472;8.166;2022-08-19T22:27:34;98258.69;;;16.76;100.00
54876;BME280;40764;48.472;8.166;2022-08-19T22:33:35;98255.91;;;16.76;100.00
54876;BME280;40764;48.472;8.166;2022-08-19T22:39:36;98260.41;;;16.89;100.00
54876;BME280;40764;48.472;8.166;2022-08-19T22:45:37;98259.13;;;16.87;100.00
54876;BME280;40764;48.472;8.166;2022-08-19T22:51:37;98257.91;;;16.96;100.00
54876;BME280;40764;48.472;8.166;2022-08-19T22:57:57;98256.22;;;17.04;100.00
54876;BME280;40764;48.472;8.166;2022-08-19T23:03:58;98263.63;;;16.91;100.00
54876;BME280;40764;48.472;8.166;2022-08-19T23:09:58;98264.50;;;17.04;100.00
54876;BME280;40764;48.472;8.166;2022-08-19T23:15:59;98262.97;;;16.94;100.00
54876;BME280;40764;48.472;8.166;2022-08-19T23:21:59;98249.44;;;16.72;100.00
54876;BME280;40764;48.472;8.166;2022-08-19T23:28:00;98255.31;;;16.70;100.00
54876;BME280;40764;48.472;8.166;2022-08-19T23:34:19;98246.78;;;16.55;100.00
54876;BME280;40764;48.472;8.166;2022-08-19T23:40:20;98237.69;;;16.54;100.00
54876;BME280;40764;48.472;8.166;2022-08-19T23:46:21;98234.50;;;16.43;100.00
54876;BME280;40764;48.472;8.166;2022-08-19T23:52:21;98238.91;;;16.65;100.00
54876;BME280;40764;48.472;8.166;2022-08-19T23:58:22;98239.91;;;16.69;100.00
